Latest Weather Observations for Cooma Airport

IDN60801

Issued at 8:32 pm EST Saturday 25 April 2015 (issued every 30 minutes, with the page automatically refreshed every 10 minutes)

About weather observations | Map of weather stations | Latest weather observations for NSW | Other Formats
Station Details ID: 070217 Name: COOMA AIRPORT AWS Lat: -36.29 Lon: 148.97 Height: 930.0 m
Data from the previous 72 hours. | See also: Recent months for locations in New South Wales
Date/Time
EST
Temp
°C
App
Temp
°C
Dew
Point
Rel
Hum
%
Delta-T
°C
Wind Press
QNH
hPa
Press
MSL
hPa
Rain
since 9 am
mm
Dir
 
Spd
km/h
Gust
km/h
Spd
kts
Gust
kts
25/08:00pm 5.0 3.9 4.9 99 0.0 CALM 0 0 0 0 1009.9 1008.5 7.8
25/07:30pm 5.4 3.0 5.3 99 0.0 NW 7 9 4 5 1009.4 1008.1 7.8
25/07:00pm 5.4 3.0 5.3 99 0.0 NW 7 9 4 5 1009.2 1007.9 7.8
25/06:30pm 5.1 4.0 5.0 99 0.0 CALM 0 0 0 0 1009.0 1007.6 7.8
25/05:30pm 6.2 4.0 6.1 99 0.0 NE 7 9 4 5 1008.0 1006.6 7.8
25/05:00pm 7.1 4.6 6.7 97 0.2 NE 9 13 5 7 1008.6 1007.2 7.8
25/04:30pm 7.6 5.1 6.4 92 0.6 NNW 9 17 5 9 1008.4 1007.1 7.8
25/04:00pm 8.1 4.8 6.6 90 0.7 NNE 13 20 7 11 1008.0 1006.6 7.8
25/03:30pm 7.8 4.9 6.4 91 0.7 ENE 11 15 6 8 1008.0 1006.6 7.8
25/03:00pm 8.0 5.0 6.0 87 1.0 N 11 15 6 8 1008.7 1007.3 7.4
25/02:32pm 8.1 4.8 6.2 88 0.9 W 13 17 7 9 1008.9 1007.5 6.8
25/02:30pm 8.2 4.9 6.3 88 0.9 W 13 17 7 9 1008.9 1007.5 6.8
25/02:14pm 7.9 5.5 7.0 94 0.4 NW 9 15 5 8 1009.3 1008.0 6.2
25/02:00pm 7.9 5.5 7.0 94 0.4 N 9 13 5 7 1009.3 1008.0 5.6
25/01:43pm 8.0 4.8 6.9 93 0.5 W 13 19 7 10 1008.8 1007.4 5.4
25/01:30pm 7.7 3.2 6.2 90 0.7 SW 19 28 10 15 1008.2 1006.8 5.2
25/01:15pm 7.8 3.0 4.9 82 1.4 NW 19 30 10 16 1008.9 1007.5 1.4
25/01:00pm 8.8 5.2 6.9 88 0.9 SSW 15 19 8 10 1008.2 1006.8 0.0
25/12:40pm 9.1 3.6 5.7 79 1.6 WSW 24 33 13 18 1008.2 1006.8 0.0
25/12:30pm 10.7 5.5 5.3 69 2.6 W 22 33 12 18 1008.4 1007.1 0.0
25/12:14pm 13.1 11.3 5.3 59 3.8 WSW 4 9 2 5 1008.3 1007.0 0.0
25/12:00pm 14.5 11.7 3.3 47 5.4 NE 7 15 4 8 1008.2 1006.8 0.0
25/11:30am 15.0 12.4 6.0 55 4.5 ENE 9 15 5 8 1008.6 1007.2 0.0
25/10:30am 11.8 8.2 5.0 63 3.3 NW 13 20 7 11 1009.1 1007.7 0.0
25/10:00am 10.0 5.4 5.4 73 2.2 NNW 19 26 10 14 1009.7 1008.3 0.0
25/09:30am 10.6 5.9 6.0 73 2.3 NNW 20 28 11 15 1009.8 1008.4 0.0
25/09:00am 9.5 7.0 6.6 82 1.4 NE 9 11 5 6 1009.6 1008.3 0.0
25/08:30am 8.5 5.2 6.3 86 1.1 NE 13 15 7 8 1009.4 1008.1 0.0
25/08:00am 7.6 4.2 5.7 88 0.9 NNE 13 15 7 8 1009.2 1007.9 0.0
25/07:30am 6.6 2.7 5.4 92 0.6 NE 15 17 8 9 1008.8 1007.4 0.0
25/07:00am 4.6 1.6 3.9 95 0.3 NE 9 11 5 6 1008.6 1007.2 0.0
25/06:30am 4.8 2.0 3.1 89 0.7 NE 7 11 4 6 1008.3 1007.0 0.0
25/05:30am 7.0 3.9 3.8 80 1.4 WNW 9 15 5 8 1007.9 1006.5 0.0
25/05:00am 8.2 4.4 4.0 75 1.9 NW 13 19 7 10 1008.0 1006.6 0.0
25/04:30am 8.2 4.1 4.2 76 1.8 WNW 15 20 8 11 1008.1 1006.7 0.0
25/04:00am 8.5 4.1 4.5 76 1.9 WNW 17 24 9 13 1008.1 1006.7 0.0
25/03:30am 8.5 3.4 4.3 75 1.9 WNW 20 30 11 16 1007.8 1006.4 0.0
25/03:00am 8.9 4.9 4.9 76 1.9 WNW 15 26 8 14 1007.8 1006.4 0.0
25/02:30am 6.6 4.4 3.2 79 1.5 ENE 4 11 2 6 1007.9 1006.5 0.0
25/02:00am 9.7 5.2 4.3 69 2.5 NW 17 24 9 13 1008.0 1006.6 0.0
25/01:30am 9.4 5.8 5.2 75 2.0 NW 13 20 7 11 1008.1 1006.7 0.0
25/01:00am 9.3 6.3 6.0 80 1.6 WNW 11 17 6 9 1008.1 1006.7 0.0
25/12:30am 10.0 6.7 6.5 79 1.7 WNW 13 19 7 10 1007.9 1006.5 0.0
25/12:00am 9.8 5.3 6.9 82 1.4 NW 20 28 11 15 1007.8 1006.4 0.0
 
Date/Time
EST
Temp
°C
App
Temp
°C
Dew
Point
Rel
Hum
%
Delta-T
°C
Wind Press
QNH
hPa
Press
MSL
hPa
Rain
since 9 am
mm
Dir
 
Spd
km/h
Gust
km/h
Spd
kts
Gust
kts
24/11:30pm 10.5 7.3 7.0 79 1.8 NW 13 20 7 11 1008.1 1006.7 0.0
24/11:00pm 9.1 6.6 6.7 85 1.2 N 9 13 5 7 1008.2 1006.8 0.0
24/10:30pm 10.1 7.6 6.6 79 1.7 N 9 13 5 7 1008.1 1006.7 0.0
24/10:00pm 10.0 7.0 6.2 77 1.9 N 11 15 6 8 1008.0 1006.6 0.0
24/09:30pm 11.5 7.9 6.6 72 2.4 NW 15 20 8 11 1008.1 1006.7 0.0
24/09:00pm 10.8 8.3 6.4 74 2.2 NW 9 17 5 9 1007.9 1006.5 0.0
24/08:30pm 10.6 8.5 6.6 76 2.0 WNW 7 9 4 5 1007.9 1006.5 0.0
24/08:00pm 11.0 8.6 7.1 77 2.0 NW 9 13 5 7 1007.7 1006.3 0.0
24/07:30pm 11.1 9.1 7.0 76 2.1 NW 7 11 4 6 1007.6 1006.2 0.0
24/07:00pm 11.4 9.1 7.5 77 2.0 NNW 9 13 5 7 1007.5 1006.1 0.0
24/06:30pm 11.8 9.2 7.7 76 2.1 NNW 11 15 6 8 1007.4 1006.0 0.0
24/06:00pm 12.1 9.1 7.6 74 2.3 NW 13 17 7 9 1007.1 1005.7 0.0
24/05:30pm 12.0 9.9 8.1 77 2.0 N 9 15 5 8 1006.9 1005.5 0.0
24/05:00pm 12.2 10.8 9.4 83 1.5 N 7 11 4 6 1006.9 1005.5 0.0
24/04:30pm 12.6 11.2 8.9 78 2.0 NNW 6 7 3 4 1006.7 1005.3 0.0
24/04:00pm 12.7 8.8 8.6 76 2.2 WNW 19 32 10 17 1006.6 1005.2 0.0
24/03:30pm 13.2 10.1 8.9 75 2.3 WNW 15 22 8 12 1006.5 1005.1 0.0
24/03:00pm 13.9 9.3 8.1 68 3.0 WNW 22 32 12 17 1006.5 1005.1 0.0
24/02:30pm 15.0 11.2 9.1 68 3.2 WNW 19 26 10 14 1006.0 1004.6 0.0
24/02:00pm 15.2 11.4 8.9 66 3.4 NW 19 30 10 16 1005.8 1004.4 0.0
24/01:30pm 15.8 12.6 10.1 69 3.1 WNW 17 28 9 15 1005.7 1004.3 0.0
24/01:00pm 15.9 11.6 9.3 65 3.6 WNW 22 30 12 16 1005.8 1004.4 0.0
24/12:30pm 16.3 12.6 10.2 67 3.4 WNW 20 30 11 16 1006.0 1004.6 0.0
24/12:00pm 15.9 12.8 10.4 70 3.1 WNW 17 26 9 14 1006.3 1004.8 0.0
24/11:30am 16.3 13.9 11.5 73 2.7 NNW 15 20 8 11 1006.6 1005.2 0.0
24/11:00am 15.1 13.2 11.7 80 1.9 N 13 19 7 10 1006.9 1005.5 0.0
24/10:30am 13.9 11.8 13.7 99 0.1 NE 17 20 9 11 1007.2 1005.8 0.0
24/10:00am 13.3 11.0 13.1 99 0.1 NE 17 20 9 11 1007.4 1006.0 0.0
24/09:30am 12.8 10.4 12.8 100 0.0 NE 17 20 9 11 1007.5 1006.1 0.0
24/09:06am 12.3 10.6 12.3 100 0.0 NE 13 20 7 11 1007.7 1006.3 0.0
24/09:00am 12.5 10.8 12.5 100 0.0 NE 13 19 7 10 1007.7 1006.3 5.6
24/08:47am 12.2 10.4 12.2 100 0.0 NE 13 17 7 9 1007.9 1006.5 5.6
24/08:30am 11.1 9.0 11.1 100 0.0 NE 13 15 7 8 1008.0 1006.6 5.6
24/08:00am 10.2 7.1 10.2 100 0.0 NE 17 19 9 10 1008.3 1007.0 5.6
24/07:30am 9.7 7.2 9.7 100 0.0 NNE 13 15 7 8 1008.1 1006.7 5.6
24/07:00am 9.2 7.0 9.2 100 0.0 NE 11 15 6 8 1008.0 1006.6 5.6
24/06:30am 9.1 6.4 9.1 100 0.0 NNE 13 15 7 8 1007.9 1006.5 5.6
24/06:00am 9.0 6.3 9.0 100 0.0 NNE 13 17 7 9 1008.0 1006.6 5.6
24/05:57am 8.9 5.8 8.9 100 0.0 NNE 15 17 8 9 1008.0 1006.6 5.6
24/05:36am 8.8 6.1 8.8 100 0.0 NE 13 17 7 9 1008.1 1006.7 5.6
24/05:30am 8.9 5.8 8.9 100 0.0 NE 15 17 8 9 1008.1 1006.7 5.6
24/05:00am 9.1 6.8 9.1 100 0.0 NE 11 13 6 7 1008.2 1006.8 5.6
24/04:30am 9.0 6.7 9.0 100 0.0 NE 11 13 6 7 1008.3 1007.0 5.6
24/04:00am 9.0 6.7 9.0 100 0.0 NNE 11 13 6 7 1008.6 1007.2 5.6
24/03:30am 8.3 6.2 8.3 100 0.0 NNE 9 11 5 6 1008.7 1007.3 5.6
24/03:00am 8.2 5.7 8.2 100 0.0 NE 11 15 6 8 1009.0 1007.6 5.6
24/02:30am 7.4 4.7 7.4 100 0.0 NE 11 13 6 7 1009.5 1008.2 5.6
24/02:00am 7.0 4.6 7.0 100 0.0 NNE 9 9 5 5 1009.9 1008.5 5.6
24/01:30am 7.3 5.0 7.3 100 0.0 NE 9 11 5 6 1010.2 1008.9 5.6
24/01:00am 7.2 6.5 7.1 99 0.0 CALM 0 0 0 0 1010.5 1009.2 5.4
24/12:30am 8.1 7.7 8.1 100 0.0 CALM 0 0 0 0 1011.0 1009.6 5.4
24/12:00am 8.6 7.0 8.6 100 0.0 E 7 9 4 5 1011.4 1010.1 5.4
 
Date/Time
EST
Temp
°C
App
Temp
°C
Dew
Point
Rel
Hum
%
Delta-T
°C
Wind Press
QNH
hPa
Press
MSL
hPa
Rain
since 9 am
mm
Dir
 
Spd
km/h
Gust
km/h
Spd
kts
Gust
kts
23/11:30pm 9.2 7.9 9.2 100 0.0 NW 6 7 3 4 1011.7 1010.4 5.4
23/11:00pm 10.5 9.9 10.5 100 0.0 ENE 4 7 2 4 1011.7 1010.4 5.4
23/10:30pm 10.8 10.7 10.8 100 0.0 N 2 7 1 4 1012.3 1011.0 5.4
23/10:00pm 10.9 11.2 10.9 100 0.0 CALM 0 0 0 0 1012.8 1011.5 5.4
23/09:30pm 11.0 10.6 11.0 100 0.0 S 4 9 2 5 1013.3 1012.0 5.4
23/09:00pm 10.9 10.1 10.9 100 0.0 WSW 6 7 3 4 1013.4 1012.1 5.4
23/08:30pm 10.9 11.2 10.9 100 0.0 CALM 0 0 0 0 1013.4 1012.1 5.4
23/08:03pm 10.1 10.2 10.1 100 0.0 CALM 0 0 0 0 1013.7 1012.4 5.4
23/08:00pm 10.1 10.2 10.1 100 0.0 CALM 0 0 0 0 1013.7 1012.4 5.4
23/07:39pm 9.2 7.7 9.1 99 0.1 SSW 7 9 4 5 1013.7 1012.4 5.4
23/07:34pm 9.1 7.6 9.0 99 0.1 SSW 7 9 4 5 1013.7 1012.4 5.4
23/07:30pm 9.1 7.6 9.0 99 0.1 SSW 7 9 4 5 1013.7 1012.4 5.4
23/07:24pm 9.2 7.7 9.1 99 0.1 SSW 7 9 4 5 1013.6 1012.3 5.4
23/07:18pm 9.4 7.9 9.3 99 0.1 SW 7 9 4 5 1013.7 1012.4 5.4
23/07:04pm 9.2 7.7 9.1 99 0.1 S 7 9 4 5 1013.5 1012.2 5.4
23/07:00pm 9.3 7.8 9.2 99 0.1 S 7 9 4 5 1013.5 1012.2 5.4
23/06:30pm 10.7 9.2 10.7 100 0.0 S 9 9 5 5 1013.5 1012.2 5.4
23/06:00pm 10.8 9.3 10.6 99 0.1 SSW 9 11 5 6 1013.2 1011.9 5.2
23/05:30pm 11.6 10.7 11.4 99 0.1 SW 7 9 4 5 1012.7 1011.4 5.2
23/05:00pm 12.7 12.2 12.5 99 0.1 SW 7 9 4 5 1012.7 1011.4 5.2
23/04:30pm 13.9 13.7 13.7 99 0.1 SSE 7 11 4 6 1012.8 1011.5 5.2
23/04:00pm 13.8 13.6 13.6 99 0.1 S 7 11 4 6 1012.8 1011.5 4.8
23/03:30pm 14.0 13.5 13.8 99 0.1 S 9 11 5 6 1013.2 1011.9 4.8
23/03:28pm 14.1 13.7 14.1 100 0.0 S 9 11 5 6 1013.2 1011.9 4.8
23/03:25pm 14.0 13.6 14.0 100 0.0 S 9 13 5 7 1013.2 1011.9 4.8
23/03:00pm 13.7 11.0 13.5 99 0.1 SSE 20 26 11 14 1013.0 1011.8 4.4
23/02:51pm 14.3 13.2 14.3 100 0.0 S 13 20 7 11 1013.0 1011.8 3.6
23/02:44pm 14.3 12.4 14.3 100 0.0 S 17 20 9 11 1013.0 1011.8 3.6
23/02:30pm 14.2 11.7 14.0 99 0.1 S 20 28 11 15 1013.0 1011.8 3.4
23/02:06pm 14.6 11.8 14.4 99 0.1 S 22 28 12 15 1013.0 1011.8 1.8
23/02:00pm 15.1 12.5 14.9 99 0.1 SSW 22 28 12 15 1013.0 1011.8 1.0
23/01:30pm 14.7 12.3 14.5 99 0.1 SSW 20 28 11 15 1013.0 1011.8 1.0
23/01:00pm 15.0 12.4 14.8 99 0.1 S 22 30 12 16 1013.6 1012.3 0.8
23/12:47pm 15.4 13.0 15.4 100 0.0 SSW 22 30 12 16 1013.8 1012.5 0.8
23/12:32pm 14.6 11.5 14.6 100 0.0 SSW 24 30 13 16 1014.1 1012.9 0.8
23/12:31pm 14.7 11.7 14.7 100 0.0 SSW 24 30 13 16 1014.2 1013.0 0.8
23/12:30pm 14.7 12.0 14.7 100 0.0 SSW 22 30 12 16 1014.2 1013.0 0.8
23/12:00pm 14.7 12.0 14.7 100 0.0 SSW 22 32 12 17 1014.7 1013.4 0.8
23/11:30am 14.7 11.7 14.7 100 0.0 SSW 24 33 13 18 1015.1 1013.9 0.2
23/11:00am 13.9 10.6 13.9 100 0.0 SSW 24 32 13 17 1015.7 1014.4 0.2
23/10:30am 14.0 11.1 14.0 100 0.0 SSW 22 28 12 15 1016.0 1014.8 0.0
23/10:00am 13.3 9.8 13.3 100 0.0 SSW 24 32 13 17 1016.1 1014.9 0.0
23/09:30am 12.8 9.5 12.8 100 0.0 SSW 22 28 12 15 1016.1 1014.9 0.0
23/09:00am 12.6 9.6 12.6 100 0.0 SSW 20 30 11 16 1016.3 1015.1 12.8
23/08:30am 11.9 8.9 11.9 100 0.0 SW 19 24 10 13 1016.7 1015.4 12.8
23/08:00am 11.5 8.7 11.5 100 0.0 SW 17 22 9 12 1016.7 1015.4 12.6
23/07:30am 11.0 8.1 11.0 100 0.0 SW 17 20 9 11 1016.7 1015.4 12.4
23/07:00am 10.7 8.1 10.7 100 0.0 SW 15 17 8 9 1016.4 1015.2 12.2
23/06:30am 10.5 7.5 10.5 100 0.0 SW 17 20 9 11 1016.2 1015.0 12.0
23/06:00am 10.4 7.3 10.4 100 0.0 SW 17 20 9 11 1016.2 1015.0 11.8
23/05:30am 10.4 7.3 10.4 100 0.0 SW 17 20 9 11 1016.2 1015.0 11.4
23/05:00am 10.3 8.0 10.3 100 0.0 SW 13 17 7 9 1016.1 1014.9 10.8
23/04:30am 10.2 7.1 10.2 100 0.0 SW 17 20 9 11 1016.0 1014.8 9.4
23/04:00am 10.1 6.9 10.1 100 0.0 SW 17 20 9 11 1015.9 1014.7 8.8
23/03:30am 10.2 7.1 10.2 100 0.0 SW 17 20 9 11 1015.9 1014.7 8.8
23/03:00am 10.2 6.5 10.2 100 0.0 SW 20 28 11 15 1016.0 1014.8 8.2
23/02:30am 10.0 7.6 10.0 100 0.0 SW 13 17 7 9 1016.3 1015.1 7.8
23/02:00am 10.0 7.2 10.0 100 0.0 SSW 15 20 8 11 1016.8 1015.6 7.4
23/01:30am 9.9 7.5 9.9 100 0.0 SW 13 17 7 9 1017.0 1015.8 6.8
23/01:00am 9.9 7.5 9.9 100 0.0 WSW 13 17 7 9 1017.1 1015.9 6.4
23/12:30am 9.9 6.1 9.9 100 0.0 SW 20 28 11 15 1017.2 1016.0 5.8
23/12:00am 9.8 5.6 9.8 100 0.0 SW 22 32 12 17 1017.4 1016.2 5.4
 
Date/Time
EST
Temp
°C
App
Temp
°C
Dew
Point
Rel
Hum
%
Delta-T
°C
Wind Press
QNH
hPa
Press
MSL
hPa
Rain
since 9 am
mm
Dir
 
Spd
km/h
Gust
km/h
Spd
kts
Gust
kts
22/11:30pm 9.7 5.9 9.7 100 0.0 SW 20 26 11 14 1017.8 1016.6 5.2
22/11:00pm 9.6 5.4 9.6 100 0.0 SW 22 28 12 15 1018.0 1016.8 4.8
22/10:30pm 9.6 5.0 9.6 100 0.0 SW 24 33 13 18 1018.2 1017.0 4.8
22/10:00pm 9.4 4.0 9.4 100 0.0 SW 28 35 15 19 1018.3 1017.1 4.8
22/09:41pm 9.3 4.6 9.3 100 0.0 SW 24 30 13 16 1018.8 1017.7 4.6
22/09:30pm 9.3 4.6 9.3 100 0.0 SW 24 32 13 17 1019.0 1017.8 4.6
22/09:00pm 9.2 4.1 9.2 100 0.0 SW 26 33 14 18 1019.0 1017.8 4.6

Other Formats:

Comma delimited format used in spreadsheet applications
http://www.bom.gov.au/fwo/IDN60801/IDN60801.94921.axf

JavaScript Object Notation format (JSON) in row-major order
http://www.bom.gov.au/fwo/IDN60801/IDN60801.94921.json